createdAt,value
2018-07-03T07:36:29.116Z,99334.00
2018-07-03T07:38:37.147Z,99330.00
2018-07-03T07:40:43.083Z,99336.00
2018-07-03T07:42:50.393Z,99332.00
2018-07-03T07:47:06.541Z,99330.00
2018-07-03T07:49:15.458Z,99332.00
2018-07-03T07:51:23.776Z,99335.00
2018-07-03T07:53:29.462Z,99332.00
2018-07-03T07:55:35.473Z,99332.00
2018-07-03T07:57:41.737Z,99333.00
2018-07-03T07:59:48.006Z,99328.00
2018-07-03T08:01:54.316Z,99334.00
2018-07-03T08:04:00.245Z,99332.00
2018-07-03T08:06:06.239Z,99328.00
2018-07-03T08:08:15.076Z,99329.00
2018-07-03T08:10:25.804Z,99325.00
2018-07-03T08:12:31.782Z,99325.00
2018-07-03T08:15:41.165Z,99320.00
2018-07-03T08:17:46.673Z,99316.00
2018-07-03T08:19:52.934Z,99318.00
2018-07-03T08:21:59.096Z,99319.00
2018-07-03T08:26:27.438Z,99318.00
2018-07-03T08:28:32.983Z,99314.00
2018-07-03T08:30:38.506Z,99317.00
2018-07-03T08:32:44.505Z,99314.00
2018-07-03T08:34:50.014Z,99314.00
2018-07-03T08:36:56.027Z,99316.00
2018-07-03T08:39:01.949Z,99320.00
2018-07-03T08:41:10.895Z,99308.00
2018-07-03T08:43:18.315Z,99319.00
2018-07-03T08:45:25.325Z,99314.00
2018-07-03T08:47:31.472Z,99313.00
2018-07-03T08:49:37.053Z,99315.00
2018-07-03T08:51:42.923Z,99309.00
2018-07-03T08:53:49.371Z,99303.00
2018-07-03T08:55:54.910Z,99306.00
2018-07-03T08:58:01.523Z,99306.00
2018-07-03T09:00:10.316Z,99300.00
2018-07-03T09:02:18.079Z,99301.00
2018-07-03T09:04:26.596Z,99298.00
2018-07-03T09:06:33.933Z,99301.00
2018-07-03T09:08:39.601Z,99300.00
2018-07-03T09:10:45.542Z,99293.00
2018-07-03T09:12:51.407Z,99301.00
2018-07-03T09:14:57.428Z,99307.00
2018-07-03T09:17:38.065Z,99299.00
2018-07-03T09:19:44.150Z,99300.00
2018-07-03T09:21:49.689Z,99299.00
2018-07-03T09:23:55.544Z,99294.00
2018-07-03T09:26:01.149Z,99299.00
2018-07-03T09:28:08.018Z,99297.00
2018-07-03T09:30:16.916Z,99288.00
2018-07-03T09:32:25.297Z,99291.00
2018-07-03T09:34:30.925Z,99285.00
2018-07-03T09:36:36.931Z,99282.00
2018-07-03T09:38:42.581Z,99276.00
2018-07-03T09:40:48.260Z,99280.00
2018-07-03T09:42:54.190Z,99278.00
2018-07-03T09:44:59.844Z,99279.00
2018-07-03T09:47:07.546Z,99272.00
2018-07-03T09:49:19.777Z,99272.00
2018-07-03T09:51:25.529Z,99268.00
2018-07-03T09:53:31.680Z,99267.00
2018-07-03T09:55:37.533Z,99272.00
2018-07-03T09:57:43.122Z,99271.00
2018-07-03T09:59:48.631Z,99270.00
2018-07-03T10:01:54.495Z,99269.00
2018-07-03T10:04:00.050Z,99267.00
2018-07-03T10:06:06.478Z,99269.00
2018-07-03T10:08:18.045Z,99269.00
2018-07-03T10:10:28.314Z,99264.00
2018-07-03T10:12:34.756Z,99260.00
2018-07-03T10:14:40.554Z,99260.00
2018-07-03T10:16:46.153Z,99256.00
2018-07-03T10:18:51.728Z,99256.00
2018-07-03T10:20:57.589Z,99259.00
2018-07-03T10:23:03.198Z,99258.00
2018-07-03T10:25:09.641Z,99255.00
2018-07-03T10:27:18.087Z,99250.00
2018-07-03T10:29:24.825Z,99251.00
2018-07-03T10:31:30.630Z,99253.00
2018-07-03T10:33:37.378Z,99254.00
2018-07-03T10:35:43.045Z,99250.00
2018-07-03T10:37:48.933Z,99250.00
2018-07-03T10:39:54.724Z,99245.00
2018-07-03T10:42:00.341Z,99256.00
2018-07-03T10:44:06.796Z,99244.00
2018-07-03T10:46:15.337Z,99248.00
2018-07-03T10:48:22.874Z,99237.00
2018-07-03T10:50:28.977Z,99240.00
2018-07-03T10:52:34.807Z,99240.00
2018-07-03T10:54:40.397Z,99239.00
2018-07-03T10:56:46.101Z,99237.00
2018-07-03T10:58:52.168Z,99236.00
2018-07-03T11:00:57.714Z,99235.00
2018-07-03T11:03:04.029Z,99232.00
2018-07-03T11:05:11.054Z,99227.00
2018-07-03T11:07:19.492Z,99225.00
2018-07-03T11:09:25.789Z,99229.00
2018-07-03T11:11:31.632Z,99222.00
2018-07-03T11:13:37.109Z,99226.00
2018-07-03T11:15:42.633Z,99226.00
2018-07-03T11:17:48.715Z,99226.00
2018-07-03T11:19:54.465Z,99221.00
2018-07-03T11:22:00.014Z,99221.00
2018-07-03T11:24:09.630Z,99220.00
2018-07-03T11:26:20.279Z,99226.00
2018-07-03T11:28:32.883Z,99220.00
2018-07-03T11:30:38.718Z,99213.00
2018-07-03T11:32:44.310Z,99217.00
2018-07-03T11:34:50.149Z,99219.00
2018-07-03T11:36:56.072Z,99218.00
2018-07-03T11:39:01.765Z,99212.00
2018-07-03T11:41:09.631Z,99215.00
2018-07-03T11:43:18.351Z,99213.00
2018-07-03T11:45:25.653Z,99205.00
2018-07-03T11:47:31.204Z,99208.00
2018-07-03T11:49:37.228Z,99210.00
2018-07-03T11:51:43.354Z,99203.00
2018-07-03T11:53:49.269Z,99211.00
2018-07-03T11:55:55.128Z,99207.00
2018-07-03T11:58:00.778Z,99198.00
2018-07-03T12:00:07.092Z,99191.00
2018-07-03T12:02:15.743Z,99185.00
2018-07-03T12:04:26.094Z,99189.00
2018-07-03T12:06:31.609Z,99189.00
2018-07-03T12:08:37.669Z,99189.00
2018-07-03T12:10:43.700Z,99187.00
2018-07-03T12:12:49.268Z,99186.00
2018-07-03T12:14:56.070Z,99203.00
2018-07-03T12:17:02.272Z,99203.00
2018-07-03T12:19:09.982Z,99202.00
2018-07-03T12:21:18.994Z,99192.00
2018-07-03T12:23:26.629Z,99192.00
2018-07-03T12:25:32.214Z,99189.00
2018-07-03T12:27:38.430Z,99209.00
2018-07-03T12:29:44.101Z,99189.00
2018-07-03T12:31:49.719Z,99189.00
2018-07-03T12:33:55.707Z,99187.00
2018-07-03T12:36:01.880Z,99187.00
2018-07-03T12:38:18.330Z,99195.00
2018-07-03T12:43:29.759Z,99184.00
2018-07-03T12:45:41.399Z,99196.00
2018-07-03T12:47:48.712Z,99189.00
2018-07-03T12:49:57.059Z,99187.00
2018-07-03T12:52:02.783Z,99182.00
2018-07-03T12:54:15.172Z,99189.00
2018-07-03T12:56:34.001Z,99183.00
2018-07-03T12:58:46.015Z,99187.00
2018-07-03T13:00:53.553Z,99170.00
2018-07-03T13:03:03.376Z,99170.00
2018-07-03T13:05:15.036Z,99180.00
2018-07-03T13:07:24.546Z,99191.00
2018-07-03T13:09:30.565Z,99196.00
2018-07-03T13:11:36.739Z,99191.00
2018-07-03T13:13:43.054Z,99198.00
2018-07-03T13:15:48.937Z,99195.00
2018-07-03T13:17:54.962Z,99187.00
2018-07-03T13:20:01.516Z,99186.00
2018-07-03T13:22:09.424Z,99177.00
2018-07-03T13:24:20.945Z,99178.00
2018-07-03T13:26:26.851Z,99163.00
2018-07-03T13:28:32.477Z,99176.00
2018-07-03T13:30:38.116Z,99178.00
2018-07-03T13:32:44.020Z,99182.00
2018-07-03T13:34:49.824Z,99176.00
2018-07-03T13:36:55.745Z,99167.00
2018-07-03T13:39:01.773Z,99169.00
2018-07-03T13:41:08.779Z,99174.00
2018-07-03T13:43:16.564Z,99181.00
2018-07-03T13:45:24.224Z,99178.00
2018-07-03T13:47:30.046Z,99178.00
2018-07-03T13:49:36.881Z,99179.00
2018-07-03T13:51:43.263Z,99173.00
2018-07-03T13:53:48.896Z,99176.00
2018-07-03T13:55:54.686Z,99169.00
2018-07-03T13:58:03.255Z,99150.00
2018-07-03T14:00:09.981Z,99144.00
2018-07-03T14:02:18.281Z,99139.00
2018-07-03T14:04:24.706Z,99135.00
2018-07-03T14:06:30.428Z,99122.00
2018-07-03T14:08:36.086Z,99124.00
2018-07-03T14:10:41.905Z,99116.00
2018-07-03T14:12:47.721Z,99105.00
2018-07-03T14:14:53.269Z,99099.00
2018-07-03T14:16:59.332Z,99098.00
2018-07-03T14:19:05.601Z,99101.00
2018-07-03T14:21:14.483Z,99094.00
2018-07-03T14:23:22.107Z,99093.00
2018-07-03T14:25:27.722Z,99100.00
2018-07-03T14:27:33.329Z,99093.00
2018-07-03T14:29:39.232Z,99093.00
2018-07-03T14:31:44.725Z,99094.00
2018-07-03T14:33:50.376Z,99086.00
2018-07-03T14:35:56.262Z,99085.00
2018-07-03T14:38:01.916Z,99082.00
2018-07-03T14:40:09.772Z,99081.00
2018-07-03T14:42:17.335Z,99080.00
2018-07-03T14:44:24.493Z,99090.00
2018-07-03T14:46:30.207Z,99085.00
2018-07-03T14:48:36.132Z,99076.00
2018-07-03T14:50:41.726Z,99079.00
2018-07-03T14:52:47.420Z,99071.00
2018-07-03T14:54:53.346Z,99076.00
2018-07-03T14:56:58.909Z,99074.00
2018-07-03T14:59:04.934Z,99072.00
2018-07-03T15:01:13.561Z,99065.00
2018-07-03T15:03:20.312Z,99068.00
2018-07-03T15:05:26.516Z,99067.00
2018-07-03T15:07:32.544Z,99069.00
2018-07-03T15:09:38.721Z,99067.00
2018-07-03T15:11:46.872Z,99067.00
2018-07-03T15:13:52.809Z,99061.00
2018-07-03T15:15:58.535Z,99069.00
2018-07-03T15:18:04.383Z,99058.00
2018-07-03T15:20:11.177Z,99045.00
2018-07-03T15:22:20.497Z,99057.00
2018-07-03T15:24:29.653Z,99053.00
2018-07-03T15:26:35.674Z,99055.00
2018-07-03T15:28:41.257Z,99046.00
2018-07-03T15:30:47.441Z,99045.00
2018-07-03T15:32:53.648Z,99034.00
2018-07-03T15:34:59.322Z,99042.00
2018-07-03T15:37:07.118Z,99038.00
2018-07-03T15:39:19.830Z,99040.00
2018-07-03T15:45:38.550Z,99031.00
2018-07-03T15:47:44.466Z,99042.00
2018-07-03T15:49:50.251Z,99043.00
2018-07-03T15:51:56.388Z,99032.00
2018-07-03T15:54:01.965Z,99033.00
2018-07-03T15:56:10.063Z,99022.00
2018-07-03T15:58:19.824Z,99026.00
2018-07-03T16:05:09.061Z,99023.00
2018-07-03T16:07:24.841Z,99026.00
2018-07-03T16:09:33.926Z,99023.00
2018-07-03T16:11:40.351Z,99025.00
2018-07-03T16:13:45.894Z,99028.00
2018-07-03T16:15:51.905Z,99029.00
2018-07-03T16:18:00.282Z,99026.00
2018-07-03T16:20:13.105Z,99019.00
2018-07-03T16:22:28.267Z,99017.00
2018-07-03T16:24:34.234Z,99018.00
2018-07-03T16:26:40.221Z,99019.00
2018-07-03T16:28:45.945Z,99019.00
2018-07-03T16:30:52.084Z,99015.00
2018-07-03T16:32:57.884Z,99005.00
2018-07-03T16:35:03.721Z,99010.00
2018-07-03T16:37:13.840Z,99011.00
2018-07-03T16:39:21.164Z,99007.00
2018-07-03T16:41:26.898Z,99005.00
2018-07-03T16:43:32.897Z,99009.00
2018-07-03T16:45:39.105Z,99007.00
2018-07-03T16:47:44.801Z,99007.00
2018-07-03T16:49:51.018Z,99007.00
2018-07-03T16:51:57.025Z,98997.00
2018-07-03T16:54:02.595Z,98998.00
2018-07-03T16:56:11.912Z,98997.00
2018-07-03T16:58:19.753Z,99000.00
2018-07-03T17:00:29.533Z,98990.00
2018-07-03T17:02:35.494Z,98994.00
2018-07-03T17:04:41.177Z,98991.00
2018-07-03T17:06:47.520Z,98994.00
2018-07-03T17:08:54.712Z,98983.00
2018-07-03T17:11:01.662Z,98992.00
2018-07-03T17:13:13.608Z,98991.00
2018-07-03T17:15:25.750Z,98990.00
2018-07-03T17:17:31.829Z,98990.00
2018-07-03T17:19:40.327Z,98992.00
2018-07-03T17:21:47.476Z,98992.00
2018-07-03T17:23:53.542Z,98994.00
2018-07-03T17:25:59.368Z,98991.00
2018-07-03T17:28:06.486Z,98985.00
2018-07-03T17:30:16.972Z,98991.00
2018-07-03T17:32:26.381Z,98992.00
2018-07-03T17:34:33.334Z,98990.00
2018-07-03T17:36:39.924Z,98993.00
2018-07-03T17:38:45.794Z,98993.00
2018-07-03T17:41:01.922Z,98993.00
2018-07-03T17:43:23.821Z,98991.00
2018-07-03T17:45:40.807Z,98996.00
2018-07-03T17:47:46.757Z,98990.00
2018-07-03T17:49:52.500Z,98990.00
2018-07-03T17:51:58.210Z,98989.00
2018-07-03T17:54:04.511Z,98996.00
2018-07-03T17:56:18.837Z,98998.00
2018-07-03T17:58:25.235Z,98996.00
2018-07-03T18:00:31.832Z,98998.00
2018-07-03T18:02:37.469Z,98996.00
2018-07-03T18:04:43.109Z,98993.00
2018-07-03T18:06:50.180Z,98992.00
2018-07-03T18:08:56.375Z,98985.00
2018-07-03T18:11:01.962Z,98988.00
2018-07-03T18:13:09.158Z,98985.00
2018-07-03T18:15:16.451Z,98994.00
2018-07-03T18:17:24.107Z,98994.00
2018-07-03T18:19:34.951Z,98995.00
2018-07-03T18:21:40.712Z,98997.00
2018-07-03T18:23:46.721Z,98995.00
2018-07-03T18:25:53.118Z,98994.00
2018-07-03T18:27:58.978Z,98987.00
2018-07-03T18:30:05.214Z,98982.00
2018-07-03T18:32:13.630Z,98984.00
2018-07-03T18:34:22.758Z,98989.00
2018-07-03T18:36:29.423Z,98992.00
2018-07-03T18:38:35.630Z,98994.00
2018-07-03T18:40:41.596Z,98992.00
2018-07-03T18:42:47.448Z,98991.00
2018-07-03T18:44:53.283Z,98990.00
2018-07-03T18:46:58.974Z,98995.00
2018-07-03T18:49:05.557Z,98995.00
2018-07-03T18:51:15.017Z,98995.00
2018-07-03T18:53:23.593Z,98994.00
2018-07-03T18:55:29.205Z,98992.00
2018-07-03T18:57:35.228Z,98993.00
2018-07-03T18:59:41.815Z,98993.00
2018-07-03T19:01:47.743Z,98998.00
2018-07-03T19:03:53.559Z,98994.00
2018-07-03T19:05:59.284Z,98998.00
2018-07-03T19:08:05.675Z,98998.00
2018-07-03T19:10:14.477Z,98998.00
2018-07-03T19:12:21.977Z,99001.00
2018-07-03T19:14:27.737Z,98998.00
2018-07-03T19:16:33.929Z,98997.00
2018-07-03T19:18:39.709Z,99003.00
2018-07-03T19:20:45.458Z,99007.00
2018-07-03T19:22:51.332Z,99010.00
2018-07-03T19:24:56.873Z,99008.00
2018-07-03T19:27:02.665Z,99012.00
2018-07-03T19:29:11.940Z,99014.00
2018-07-03T19:31:23.398Z,99017.00
2018-07-03T19:33:31.490Z,99019.00
2018-07-03T19:35:41.770Z,99021.00
2018-07-03T19:37:49.701Z,99020.00
2018-07-03T19:39:56.457Z,99023.00
2018-07-03T19:42:02.479Z,99028.00
2018-07-03T19:44:11.444Z,99026.00
2018-07-03T19:46:22.447Z,99029.00
2018-07-03T19:48:29.249Z,99027.00
2018-07-03T19:50:34.964Z,99032.00
2018-07-03T19:52:41.088Z,99033.00
2018-07-03T19:54:47.348Z,99029.00
2018-07-03T19:56:53.073Z,99034.00
2018-07-03T19:58:58.657Z,99035.00
2018-07-03T20:01:04.823Z,99042.00
2018-07-03T20:03:14.973Z,99033.00
2018-07-03T20:05:23.985Z,99038.00
2018-07-03T20:07:34.887Z,99042.00
2018-07-03T20:09:40.524Z,99044.00
2018-07-03T20:11:47.665Z,99045.00
2018-07-03T20:13:53.915Z,99044.00
2018-07-03T20:16:03.798Z,99046.00
2018-07-03T20:18:27.584Z,99047.00
2018-07-03T20:20:33.823Z,99047.00
2018-07-03T20:22:39.489Z,99048.00
2018-07-03T20:24:48.079Z,99053.00
2018-07-03T20:26:55.169Z,99057.00
2018-07-03T20:29:06.592Z,99052.00
2018-07-03T20:31:18.565Z,99060.00
2018-07-03T20:33:24.993Z,99056.00
2018-07-03T20:35:32.636Z,99056.00
2018-07-03T20:37:56.404Z,99055.00
2018-07-03T20:40:02.265Z,99056.00
2018-07-03T20:42:10.926Z,99050.00
2018-07-03T20:44:19.604Z,99061.00
2018-07-03T20:46:27.279Z,99057.00
2018-07-03T20:48:32.889Z,99055.00
2018-07-03T20:50:38.539Z,99056.00
2018-07-03T20:52:45.246Z,99057.00
2018-07-03T20:54:54.859Z,99058.00
2018-07-03T20:57:00.405Z,99058.00
2018-07-03T20:59:08.541Z,99057.00
2018-07-03T21:01:16.344Z,99061.00
2018-07-03T21:03:29.840Z,99061.00
2018-07-03T21:05:35.821Z,99058.00
2018-07-03T21:07:43.332Z,99054.00
2018-07-03T21:09:48.711Z,99053.00
2018-07-03T21:11:54.682Z,99056.00
2018-07-03T21:13:59.868Z,99051.00
2018-07-03T21:16:06.150Z,99052.00
2018-07-03T21:18:13.734Z,99045.00
2018-07-03T21:20:24.293Z,99050.00
2018-07-03T21:22:29.628Z,99052.00
2018-07-03T21:24:35.183Z,99051.00
2018-07-03T21:26:40.412Z,99049.00
2018-07-03T21:28:45.944Z,99046.00
2018-07-03T21:30:51.449Z,99049.00
2018-07-03T21:32:56.822Z,99049.00
2018-07-03T21:35:02.185Z,99052.00
2018-07-03T21:37:13.207Z,99054.00
2018-07-03T21:39:20.967Z,99054.00
2018-07-03T21:41:26.482Z,99049.00
2018-07-03T21:43:32.809Z,99051.00
2018-07-03T21:45:38.320Z,99051.00
2018-07-03T21:47:43.546Z,99055.00
2018-07-03T21:49:49.660Z,99058.00
2018-07-03T21:51:54.931Z,99045.00
2018-07-03T21:54:00.173Z,99052.00
2018-07-03T21:56:06.589Z,99053.00
2018-07-03T21:58:13.494Z,99050.00
2018-07-03T22:00:21.163Z,99049.00
2018-07-03T22:02:27.299Z,99049.00
2018-07-03T22:04:32.541Z,99052.00
2018-07-03T22:06:37.787Z,99053.00
2018-07-03T22:08:43.846Z,99050.00
2018-07-03T22:10:49.161Z,99049.00
2018-07-03T22:12:54.991Z,99049.00
2018-07-03T22:15:01.141Z,99046.00
2018-07-03T22:17:12.491Z,99045.00
2018-07-03T22:19:19.986Z,99041.00
2018-07-03T22:21:28.907Z,99041.00
2018-07-03T22:23:34.934Z,99052.00
2018-07-03T22:25:40.273Z,99053.00
2018-07-03T22:27:45.762Z,99061.00
2018-07-03T22:29:51.404Z,99064.00
2018-07-03T22:31:56.648Z,99065.00
2018-07-03T22:34:02.891Z,99062.00
2018-07-03T22:36:11.063Z,99059.00
2018-07-03T22:38:18.344Z,99065.00
2018-07-03T22:40:26.499Z,99064.00
2018-07-03T22:42:31.698Z,99064.00
2018-07-03T22:44:37.575Z,99061.00
2018-07-03T22:46:44.450Z,99061.00
2018-07-03T22:48:49.852Z,99063.00
2018-07-03T22:50:55.026Z,99063.00
2018-07-03T22:53:20.040Z,99062.00
2018-07-03T22:55:27.133Z,99061.00
2018-07-03T22:57:32.483Z,99063.00
2018-07-03T22:59:38.105Z,99066.00
